Tucson International Airport
KTUS : rendu visible

Aérodrome :











RETROUVEZ-NOUS SUR...

 
LOGIN :

S'inscrire | Disclaimer

   EN    FR    IT 

 









Légende :    VFR   VFR Marginal   IFR   IFR Intensif   IFR Très Intensif
Visi : 
Plafond : 
>= 8 km
>= 3000ft
5 à 8 km
1000 à 3000 ft
1500m à 5 km
500 à 1000 ft
800 à 1500m
200 à 500 ft
< 800m
< 200 ft
Symboles :   Orages  Brouillard  Fortes neiges  Fortes précipitations  Vent > 20 kt






- Altitude de l'aérodrome : 2643 ft
- Code IATA : TUS


KTUS - Tucson International

DERNIER METAR :
  • 170353Z 27009KT 10SM CLR 34/04 A2972 RMK AO2 SLP006 T03440039

METARs EXPIRÉS :
  • 170253Z 28010G18KT 10SM CLR 37/01 A2970 RMK AO2 SLP999 T03670006 53004
  • 170153Z 23011KT 10SM CLR 39/M02 A2969 RMK AO2 SLP994 T03891022
  • 170053Z 22014G18KT 10SM CLR 41/M02 A2968 RMK AO2 SLP993 T04061017
  • 162353Z 28014G19KT 10SM CLR 41/M01 A2969 RMK AO2 SLP993 T04111006 10417 20367 56022

TAF KTUS
Valide du 17 à 00h jusqu'au 18 à 00h UTC


162321Z 1700/1724 28010G18KT P6SM SKC
FM170300 26007KT P6SM SKC
FM170700 15008KT P6SM SKC
FM171800 21015G25KT P6SM SKC
FIR KZAB / Amérique du Nord



MET'MAP, la Météo Aéronautique d'un coup d'oeil ! - Copyright ORBIFLY Décembre 2007 - Disclaimer

ORBIFLY MET'MAP TEAM :

Programmation & Développement : Alexandra Zaïnal
Sur une idée originale de : Baudouin d'Aumeries
Soutien technique & logistique : Manuel Goepfert
Assistance : Marc-Olivier Méhu




SOURCES & CREDITS :

   NOAA       Earth
Advisory